createdAt,value
2022-10-23T00:01:44.456Z,101357.09
2022-10-23T00:04:19.796Z,101355.00
2022-10-23T00:06:43.152Z,101347.00
2022-10-23T00:09:08.601Z,101340.66
2022-10-23T00:11:32.087Z,101346.19
2022-10-23T00:13:57.781Z,101335.13
2022-10-23T00:16:19.764Z,101334.31
2022-10-23T00:18:41.957Z,101323.25
2022-10-23T00:21:05.364Z,101332.69
2022-10-23T00:23:27.284Z,101336.63
2022-10-23T00:25:49.360Z,101331.88
2022-10-23T00:28:11.215Z,101331.09
2022-10-23T00:30:33.044Z,101329.44
2022-10-23T00:32:54.907Z,101327.03
2022-10-23T00:35:17.010Z,101330.94
2022-10-23T00:37:38.820Z,101334.06
2022-10-23T00:40:00.638Z,101329.19
2022-10-23T00:42:23.800Z,101323.22
2022-10-23T00:44:45.533Z,101322.72
2022-10-23T00:47:07.383Z,101330.22
2022-10-23T00:49:29.283Z,101326.97
2022-10-23T00:51:57.042Z,101334.00
2022-10-23T00:54:25.806Z,101337.44
2022-10-23T00:56:48.325Z,101331.28
2022-10-23T00:59:11.087Z,101322.19
2022-10-23T01:01:33.171Z,101324.81
2022-10-23T01:03:55.894Z,101323.69
2022-10-23T01:06:37.888Z,101311.94
2022-10-23T01:09:18.549Z,101319.44
2022-10-23T01:12:00.908Z,101314.69
2022-10-23T01:14:55.079Z,101328.53
2022-10-23T01:17:34.665Z,101320.13
2022-10-23T01:20:18.103Z,101315.59
2022-10-23T01:23:17.645Z,101314.63
2022-10-23T01:26:15.631Z,101317.28
2022-10-23T01:29:01.604Z,101318.88
2022-10-23T01:31:37.493Z,101314.50
2022-10-23T01:34:18.674Z,101305.06
2022-10-23T01:36:46.913Z,101303.91
2022-10-23T01:39:19.396Z,101300.47
2022-10-23T01:41:55.850Z,101296.56
2022-10-23T01:44:36.602Z,101299.00
2022-10-23T01:46:58.949Z,101304.16
2022-10-23T01:49:24.898Z,101293.09
2022-10-23T01:51:57.402Z,101287.56
2022-10-23T01:54:33.878Z,101291.50
2022-10-23T01:56:58.794Z,101297.03
2022-10-23T01:59:35.309Z,101290.34
2022-10-23T02:02:00.642Z,101287.13
2022-10-23T02:04:34.242Z,101283.53
2022-10-23T02:06:56.751Z,101276.88
2022-10-23T02:09:19.049Z,101280.44
2022-10-23T02:11:57.720Z,101269.38
2022-10-23T02:14:58.344Z,101270.97
2022-10-23T02:18:00.262Z,101263.38
2022-10-23T02:20:38.490Z,101258.19
2022-10-23T02:23:15.149Z,101255.28
2022-10-23T02:25:58.077Z,101263.09
2022-10-23T02:28:28.952Z,101261.81
2022-10-23T02:30:58.762Z,101260.56
2022-10-23T02:33:21.018Z,101265.75
2022-10-23T02:35:43.371Z,101272.09
2022-10-23T02:38:42.745Z,101269.31
2022-10-23T02:41:25.145Z,101269.31
2022-10-23T02:44:32.107Z,101274.38
2022-10-23T02:47:13.118Z,101266.75
2022-10-23T02:49:53.075Z,101254.06
2022-10-23T02:52:42.703Z,101254.06
2022-10-23T02:55:24.982Z,101248.09
2022-10-23T02:58:00.196Z,101239.78
2022-10-23T03:00:23.535Z,101229.19
2022-10-23T03:02:58.782Z,101218.59
2022-10-23T03:05:31.628Z,101211.94
2022-10-23T03:07:54.070Z,101208.81
2022-10-23T03:10:16.291Z,101198.22
2022-10-23T03:12:38.691Z,101192.00
2022-10-23T03:15:01.300Z,101193.28
2022-10-23T03:17:23.278Z,101190.19
2022-10-23T03:19:50.140Z,101185.47
2022-10-23T03:22:12.009Z,101188.72
2022-10-23T03:24:33.811Z,101183.66
2022-10-23T03:26:55.681Z,101183.31
2022-10-23T03:29:25.037Z,101181.34
2022-10-23T03:31:46.897Z,101177.44
2022-10-23T03:34:11.312Z,101172.38
2022-10-23T03:36:35.631Z,101170.41
2022-10-23T03:39:00.102Z,101171.22
2022-10-23T03:41:22.141Z,101164.53
2022-10-23T03:43:43.983Z,101168.91
2022-10-23T03:46:09.327Z,101165.00
2022-10-23T03:48:32.656Z,101159.94
2022-10-23T03:50:54.529Z,101153.59
2022-10-23T03:53:16.295Z,101158.00
2022-10-23T03:55:38.063Z,101151.28
2022-10-23T03:57:59.839Z,101144.16
2022-10-23T04:00:22.742Z,101137.47
2022-10-23T04:02:44.902Z,101142.19
2022-10-23T04:05:07.607Z,101137.81
2022-10-23T04:07:29.371Z,101140.59
2022-10-23T04:09:52.037Z,101144.97
2022-10-23T04:12:13.894Z,101136.34
2022-10-23T04:14:35.752Z,101142.66
2022-10-23T04:16:58.252Z,101133.19
2022-10-23T04:19:22.172Z,101125.72
2022-10-23T04:21:45.342Z,101121.81
2022-10-23T04:24:07.698Z,101125.84
2022-10-23T04:26:29.442Z,101122.75
2022-10-23T04:28:51.304Z,101110.84
2022-10-23T04:31:13.323Z,101109.72
2022-10-23T04:33:37.286Z,101105.78
2022-10-23T04:35:59.115Z,101111.31
2022-10-23T04:38:20.939Z,101111.31
2022-10-23T04:40:43.737Z,101118.13
2022-10-23T04:43:05.631Z,101109.47
2022-10-23T04:45:31.866Z,101108.31
2022-10-23T04:47:53.621Z,101109.59
2022-10-23T04:50:16.007Z,101096.22
2022-10-23T04:52:57.853Z,101109.72
2022-10-23T04:55:38.202Z,101099.13
2022-10-23T04:58:09.737Z,101098.47
2022-10-23T05:00:32.277Z,101102.50
2022-10-23T05:02:54.856Z,101109.28
2022-10-23T05:05:17.982Z,101111.38
2022-10-23T05:07:59.572Z,101105.50
2022-10-23T05:10:38.513Z,101107.09
2022-10-23T05:13:05.946Z,101099.63
2022-10-23T05:15:28.242Z,101093.25
2022-10-23T05:17:58.686Z,101094.53
2022-10-23T05:20:26.942Z,101096.16
2022-10-23T05:22:52.129Z,101091.09
2022-10-23T05:25:17.749Z,101081.63
2022-10-23T05:27:45.367Z,101072.16
2022-10-23T05:30:10.602Z,101071.00
2022-10-23T05:32:34.551Z,101078.16
2022-10-23T05:34:58.292Z,101067.06
2022-10-23T05:37:22.928Z,101068.25
2022-10-23T05:39:47.151Z,101073.44
2022-10-23T05:42:11.696Z,101071.94
2022-10-23T05:44:35.403Z,101071.56
2022-10-23T05:47:17.465Z,101065.69
2022-10-23T05:49:39.253Z,101065.00
2022-10-23T05:52:17.005Z,101068.09
2022-10-23T05:55:00.554Z,101061.44
2022-10-23T05:57:57.741Z,101059.13
2022-10-23T06:00:39.633Z,101057.16
2022-10-23T06:03:21.355Z,101052.78
2022-10-23T06:05:52.660Z,101055.56
2022-10-23T06:08:17.571Z,101054.38
2022-10-23T06:10:39.737Z,101039.75
2022-10-23T06:13:03.658Z,101038.22
2022-10-23T06:15:26.198Z,101035.09
2022-10-23T06:18:04.857Z,101039.13
2022-10-23T06:20:29.910Z,101041.56
2022-10-23T06:23:05.963Z,101035.69
2022-10-23T06:25:54.615Z,101044.00
2022-10-23T06:28:21.253Z,101028.97
2022-10-23T06:30:43.656Z,101030.59
2022-10-23T06:33:06.546Z,101036.94
2022-10-23T06:35:28.726Z,101029.44
2022-10-23T06:37:50.474Z,101034.25
2022-10-23T06:40:21.634Z,101034.25
2022-10-23T06:42:56.501Z,101034.72
2022-10-23T06:45:53.762Z,101022.50
2022-10-23T06:48:48.415Z,101028.06
2022-10-23T06:51:18.041Z,101022.50
2022-10-23T06:53:40.564Z,101020.53
2022-10-23T06:56:29.304Z,101015.81
2022-10-23T06:58:51.891Z,101013.50
2022-10-23T07:01:16.533Z,101006.44
2022-10-23T07:03:40.515Z,101010.81
2022-10-23T07:06:07.475Z,101004.13
2022-10-23T07:08:30.825Z,101001.00
2022-10-23T07:10:53.084Z,101009.75
2022-10-23T07:13:14.996Z,101000.75
2022-10-23T07:16:16.584Z,101005.94
2022-10-23T07:18:38.477Z,101007.19
2022-10-23T07:21:35.941Z,101009.25
2022-10-23T07:24:18.200Z,101014.91
2022-10-23T07:26:41.458Z,101000.34
2022-10-23T07:29:03.781Z,100996.88
2022-10-23T07:31:28.374Z,100994.53
2022-10-23T07:34:11.171Z,100998.56
2022-10-23T07:36:33.243Z,100991.53
2022-10-23T07:38:55.183Z,100998.31
2022-10-23T07:41:17.525Z,100992.09
2022-10-23T07:43:39.782Z,100993.34
2022-10-23T07:46:01.970Z,100981.09
2022-10-23T07:48:31.867Z,100979.56
2022-10-23T07:51:00.981Z,100977.59
2022-10-23T07:53:25.644Z,100981.63
2022-10-23T07:56:00.116Z,100980.56
2022-10-23T07:58:34.307Z,100980.66
2022-10-23T08:01:20.813Z,100982.72
2022-10-23T08:03:42.597Z,100965.03
2022-10-23T08:06:04.567Z,100962.78
2022-10-23T08:08:27.485Z,100967.28
2022-10-23T08:10:55.765Z,100975.25
2022-10-23T08:13:23.951Z,100971.03
2022-10-23T08:15:53.137Z,100956.91
2022-10-23T08:18:33.898Z,100961.38
2022-10-23T08:21:02.701Z,100962.72
2022-10-23T08:23:24.607Z,100965.22
2022-10-23T08:25:47.521Z,100949.91
2022-10-23T08:28:12.063Z,100962.69
2022-10-23T08:30:45.032Z,100947.84
2022-10-23T08:33:07.931Z,100944.78
2022-10-23T08:35:29.828Z,100941.72
2022-10-23T08:37:52.457Z,100946.25
2022-10-23T08:40:18.149Z,100942.03
2022-10-23T08:43:08.519Z,100951.22
2022-10-23T08:46:04.142Z,100959.72
2022-10-23T08:48:56.864Z,100951.94
2022-10-23T08:51:44.669Z,100937.75
2022-10-23T08:54:33.184Z,100937.81
2022-10-23T08:57:12.878Z,100932.69
2022-10-23T08:59:47.815Z,100931.25
2022-10-23T09:02:24.507Z,100916.19
2022-10-23T09:04:50.097Z,100924.16
2022-10-23T09:07:39.598Z,100923.41
2022-10-23T09:10:38.120Z,100920.72
2022-10-23T09:13:28.820Z,100923.97
2022-10-23T09:16:26.713Z,100915.31
2022-10-23T09:18:49.959Z,100916.94
2022-10-23T09:21:11.839Z,100917.34
2022-10-23T09:23:33.578Z,100909.09
2022-10-23T09:25:56.959Z,100898.44
2022-10-23T09:28:27.400Z,100896.44
2022-10-23T09:30:50.791Z,100883.34
2022-10-23T09:33:34.683Z,100880.28
2022-10-23T09:36:19.670Z,100873.59
2022-10-23T09:38:47.601Z,100885.59
2022-10-23T09:41:26.320Z,100873.81
2022-10-23T09:44:22.541Z,100883.38
2022-10-23T09:49:23.547Z,100872.00
2022-10-23T09:51:54.622Z,100869.31
2022-10-23T09:54:17.205Z,100868.56
2022-10-23T09:59:15.736Z,100855.94
2022-10-23T10:01:55.613Z,100852.44
2022-10-23T10:04:42.072Z,100850.44
2022-10-23T10:07:19.337Z,100848.13
2022-10-23T10:09:41.109Z,100845.34
2022-10-23T10:12:38.420Z,100846.66
2022-10-23T10:15:23.767Z,100848.25
2022-10-23T10:18:09.466Z,100842.31
2022-10-23T10:21:00.682Z,100830.00
2022-10-23T10:24:00.623Z,100834.84
2022-10-23T10:26:46.499Z,100824.94
2022-10-23T10:29:25.663Z,100819.06
2022-10-23T10:32:25.307Z,100812.72
2022-10-23T10:35:10.234Z,100790.47
2022-10-23T10:38:12.685Z,100780.22
2022-10-23T10:40:42.120Z,100777.81
2022-10-23T10:43:38.797Z,100765.97
2022-10-23T10:46:33.798Z,100756.88
2022-10-23T10:49:16.003Z,100752.53
2022-10-23T10:52:25.920Z,100755.75
2022-10-23T10:55:05.468Z,100749.50
2022-10-23T10:57:41.862Z,100759.09
2022-10-23T11:00:20.882Z,100756.03
2022-10-23T11:03:02.750Z,100752.50
2022-10-23T11:05:43.375Z,100749.78
2022-10-23T11:08:28.349Z,100749.50
2022-10-23T11:10:57.933Z,100740.81
2022-10-23T11:13:29.540Z,100737.31
2022-10-23T11:15:59.158Z,100724.66
2022-10-23T11:18:29.604Z,100728.72
2022-10-23T11:21:17.559Z,100721.25
2022-10-23T11:24:11.930Z,100722.97
2022-10-23T11:27:02.018Z,100706.75
2022-10-23T11:30:04.394Z,100718.78
2022-10-23T11:33:35.581Z,100696.16
2022-10-23T11:36:48.984Z,100691.03
2022-10-23T11:39:21.210Z,100679.91
2022-10-23T11:42:15.546Z,100662.81
2022-10-23T11:44:49.345Z,100677.97
2022-10-23T11:47:39.757Z,100688.78
2022-10-23T11:50:15.142Z,100690.03
2022-10-23T11:53:17.683Z,100681.28
2022-10-23T11:55:39.587Z,100674.53
2022-10-23T11:58:07.527Z,100674.19
2022-10-23T12:00:31.563Z,100665.03
2022-10-23T12:02:59.034Z,100650.69
2022-10-23T12:05:40.479Z,100645.53
2022-10-23T12:08:07.584Z,100631.56
2022-10-23T12:10:52.925Z,100625.59
2022-10-23T12:13:36.454Z,100631.94
2022-10-23T12:16:00.887Z,100629.56
2022-10-23T12:18:23.039Z,100622.78
2022-10-23T12:21:02.167Z,100629.19
2022-10-23T12:23:48.282Z,100632.34
2022-10-23T12:26:46.005Z,100629.97
2022-10-23T12:29:32.132Z,100625.56
2022-10-23T12:32:09.100Z,100623.97
2022-10-23T12:35:08.318Z,100621.19
2022-10-23T12:37:56.016Z,100621.19
2022-10-23T12:40:18.183Z,100614.00
2022-10-23T12:42:40.062Z,100594.06
2022-10-23T12:45:17.358Z,100611.59
2022-10-23T12:47:40.107Z,100596.03
2022-10-23T12:50:01.886Z,100585.25
2022-10-23T12:52:25.321Z,100595.63
2022-10-23T12:54:50.807Z,100584.44
2022-10-23T12:57:23.122Z,100588.44
2022-10-23T12:59:46.089Z,100573.66
2022-10-23T13:02:27.510Z,100581.28
2022-10-23T13:04:53.831Z,100575.69
2022-10-23T13:07:22.597Z,100573.69
2022-10-23T13:09:46.767Z,100561.28
2022-10-23T13:12:30.992Z,100550.50
2022-10-23T13:15:20.238Z,100548.09
2022-10-23T13:17:59.190Z,100548.13
2022-10-23T13:20:26.421Z,100535.75
2022-10-23T13:22:59.454Z,100543.34
2022-10-23T13:25:33.027Z,100538.13
2022-10-23T13:28:09.982Z,100529.75
2022-10-23T13:30:38.178Z,100524.59
2022-10-23T13:33:00.768Z,100520.59
2022-10-23T13:35:24.492Z,100519.38
2022-10-23T13:37:46.299Z,100516.56
2022-10-23T13:40:19.993Z,100514.19
2022-10-23T13:42:42.052Z,100509.00
2022-10-23T13:45:09.922Z,100498.22
2022-10-23T13:47:31.712Z,100481.03
2022-10-23T13:49:53.580Z,100493.41
2022-10-23T13:52:22.183Z,100487.44
2022-10-23T13:54:43.940Z,100475.03
2022-10-23T13:57:12.915Z,100470.22
2022-10-23T13:59:34.705Z,100478.63
2022-10-23T14:01:56.771Z,100471.44
2022-10-23T14:04:19.853Z,100475.84
2022-10-23T14:06:42.519Z,100478.66
2022-10-23T14:09:06.802Z,100466.69
2022-10-23T14:11:28.653Z,100463.06
2022-10-23T14:13:52.727Z,100472.63
2022-10-23T14:16:17.889Z,100471.44
2022-10-23T14:18:40.373Z,100469.47
2022-10-23T14:21:04.539Z,100471.84
2022-10-23T14:23:26.344Z,100457.06
2022-10-23T14:25:48.132Z,100457.47
2022-10-23T14:28:09.984Z,100467.44
2022-10-23T14:30:31.737Z,100453.47
2022-10-23T14:32:53.941Z,100448.69
2022-10-23T14:35:15.870Z,100458.28
2022-10-23T14:37:37.900Z,100451.88
2022-10-23T14:40:00.829Z,100461.84
2022-10-23T14:42:23.036Z,100466.25
2022-10-23T14:44:45.233Z,100469.47
2022-10-23T14:47:07.176Z,100463.44
2022-10-23T14:49:29.221Z,100445.94
2022-10-23T14:51:51.034Z,100451.13
2022-10-23T14:54:12.934Z,100447.94
2022-10-23T14:56:40.001Z,100451.94
2022-10-23T14:59:04.933Z,100451.53
2022-10-23T15:01:26.880Z,100447.91
2022-10-23T15:03:54.656Z,100443.16
2022-10-23T15:06:18.348Z,100443.97
2022-10-23T15:08:40.389Z,100438.00
2022-10-23T15:11:06.667Z,100424.03
2022-10-23T15:13:31.174Z,100418.47
2022-10-23T15:16:06.921Z,100430.81
2022-10-23T15:18:28.975Z,100425.25
2022-10-23T15:20:53.948Z,100422.84
2022-10-23T15:23:15.804Z,100426.47
2022-10-23T15:25:40.555Z,100429.66
2022-10-23T15:28:02.363Z,100421.66
2022-10-23T15:30:24.258Z,100420.88
2022-10-23T15:32:46.082Z,100422.88
2022-10-23T15:35:08.448Z,100430.06
2022-10-23T15:37:30.245Z,100425.28
2022-10-23T15:39:52.461Z,100419.72
2022-10-23T15:42:14.550Z,100423.31
2022-10-23T15:44:37.020Z,100423.31
2022-10-23T15:46:59.840Z,100421.31
2022-10-23T15:49:21.659Z,100423.31
2022-10-23T15:51:44.198Z,100421.31
2022-10-23T15:54:09.450Z,100424.91
2022-10-23T15:56:31.592Z,100428.91
2022-10-23T15:58:53.403Z,100428.13
2022-10-23T16:01:15.308Z,100410.19
2022-10-23T16:03:39.304Z,100392.22
2022-10-23T16:06:11.071Z,100388.63
2022-10-23T16:08:33.580Z,100385.03
2022-10-23T16:10:55.389Z,100371.91
2022-10-23T16:13:17.377Z,100372.69
2022-10-23T16:15:39.147Z,100364.34
2022-10-23T16:18:00.972Z,100358.34
2022-10-23T16:20:22.944Z,100334.03
2022-10-23T16:22:45.128Z,100301.34
2022-10-23T16:25:07.509Z,100282.63
2022-10-23T16:27:29.297Z,100277.44
2022-10-23T16:29:51.171Z,100272.28
2022-10-23T16:32:13.083Z,100292.19
2022-10-23T16:34:34.890Z,100334.47
2022-10-23T16:36:56.946Z,100353.97
2022-10-23T16:39:32.116Z,100358.38
2022-10-23T16:42:29.272Z,100363.53
2022-10-23T16:45:17.299Z,100350.00
2022-10-23T16:47:39.205Z,100355.94
2022-10-23T16:50:01.421Z,100365.53
2022-10-23T16:52:23.927Z,100366.72
2022-10-23T16:54:45.882Z,100371.47
2022-10-23T16:57:07.671Z,100377.06
2022-10-23T16:59:29.560Z,100398.19
2022-10-23T17:01:51.557Z,100385.81
2022-10-23T17:04:13.487Z,100368.31
2022-10-23T17:06:36.434Z,100366.69
2022-10-23T17:09:00.275Z,100366.69
2022-10-23T17:11:26.227Z,100357.53
2022-10-23T17:13:58.653Z,100367.91
2022-10-23T17:16:34.383Z,100361.53
2022-10-23T17:18:56.967Z,100363.53
2022-10-23T17:21:22.225Z,100357.53
2022-10-23T17:23:44.838Z,100361.13
2022-10-23T17:26:15.685Z,100363.53
2022-10-23T17:28:40.476Z,100365.53
2022-10-23T17:31:02.276Z,100358.75
2022-10-23T17:33:24.997Z,100365.94
2022-10-23T17:35:46.959Z,100356.75
2022-10-23T17:38:08.737Z,100365.50
2022-10-23T17:40:33.929Z,100364.72
2022-10-23T17:42:55.754Z,100368.28
2022-10-23T17:45:17.557Z,100361.13
2022-10-23T17:47:41.082Z,100366.31
2022-10-23T17:50:03.277Z,100359.56
2022-10-23T17:52:25.080Z,100380.25
2022-10-23T17:54:52.215Z,100377.44
2022-10-23T17:57:14.033Z,100373.09
2022-10-23T17:59:35.818Z,100382.66
2022-10-23T18:02:00.022Z,100377.47
2022-10-23T18:04:22.253Z,100364.31
2022-10-23T18:06:52.860Z,100352.78
2022-10-23T18:09:15.398Z,100341.63
2022-10-23T18:11:46.818Z,100341.63
2022-10-23T18:14:10.991Z,100347.19
2022-10-23T18:16:37.840Z,100334.06
2022-10-23T18:19:00.957Z,100346.78
2022-10-23T18:21:24.809Z,100346.41
2022-10-23T18:23:46.917Z,100350.78
2022-10-23T18:26:22.859Z,100347.59
2022-10-23T18:28:47.698Z,100349.97
2022-10-23T18:31:11.409Z,100355.56
2022-10-23T18:33:33.179Z,100342.00
2022-10-23T18:35:54.995Z,100338.81
2022-10-23T18:38:16.798Z,100332.44
2022-10-23T18:40:41.398Z,100330.47
2022-10-23T18:43:09.049Z,100326.84
2022-10-23T18:45:37.367Z,100316.09
2022-10-23T18:47:59.658Z,100323.28
2022-10-23T18:50:21.544Z,100323.28
2022-10-23T18:52:43.446Z,100317.28
2022-10-23T18:55:07.953Z,100328.84
2022-10-23T18:57:29.810Z,100323.66
2022-10-23T18:59:55.305Z,100325.22
2022-10-23T19:02:20.303Z,100328.78
2022-10-23T19:04:42.300Z,100322.88
2022-10-23T19:07:04.419Z,100318.88
2022-10-23T19:09:26.187Z,100309.34
2022-10-23T19:11:48.719Z,100311.31
2022-10-23T19:14:10.797Z,100320.06
2022-10-23T19:16:59.566Z,100328.44
2022-10-23T19:19:35.370Z,100318.91
2022-10-23T19:21:58.277Z,100325.66
2022-10-23T19:24:32.047Z,100334.81
2022-10-23T19:26:54.911Z,100339.59
2022-10-23T19:29:21.653Z,100365.88
2022-10-23T19:31:48.881Z,100374.63
2022-10-23T19:34:11.369Z,100402.50
2022-10-23T19:36:33.185Z,100404.09
2022-10-23T19:38:54.992Z,100410.06
2022-10-23T19:41:18.347Z,100404.13
2022-10-23T19:43:40.241Z,100411.28
2022-10-23T19:46:06.338Z,100420.06
2022-10-23T19:48:31.455Z,100429.22
2022-10-23T19:50:53.344Z,100429.22
2022-10-23T19:53:16.859Z,100436.78
2022-10-23T19:55:38.754Z,100422.41
2022-10-23T19:58:00.808Z,100406.09
2022-10-23T20:00:22.988Z,100422.34
2022-10-23T20:02:44.803Z,100420.28
2022-10-23T20:05:08.639Z,100387.63
2022-10-23T20:07:30.436Z,100388.00
2022-10-23T20:09:52.437Z,100405.88
2022-10-23T20:12:14.555Z,100424.94
2022-10-23T20:14:36.374Z,100396.25
2022-10-23T20:16:59.777Z,100414.13
2022-10-23T20:19:21.569Z,100408.50
2022-10-23T20:21:47.247Z,100407.63
2022-10-23T20:24:11.359Z,100416.75
2022-10-23T20:26:33.347Z,100411.94
2022-10-23T20:28:56.478Z,100425.44
2022-10-23T20:31:20.890Z,100438.50
2022-10-23T20:33:43.443Z,100440.88
2022-10-23T20:36:08.508Z,100440.44
2022-10-23T20:38:30.458Z,100439.25
2022-10-23T20:40:56.456Z,100461.97
2022-10-23T20:43:18.342Z,100464.28
2022-10-23T20:45:40.158Z,100445.19
2022-10-23T20:48:01.960Z,100436.81
2022-10-23T20:50:24.183Z,100431.25
2022-10-23T20:52:46.093Z,100432.41
2022-10-23T20:55:08.494Z,100426.38
2022-10-23T20:57:30.289Z,100438.28
2022-10-23T20:59:53.416Z,100441.44
2022-10-23T21:02:15.277Z,100437.44
2022-10-23T21:04:37.212Z,100425.50
2022-10-23T21:07:15.348Z,100429.03
2022-10-23T21:09:37.946Z,100441.31
2022-10-23T21:12:00.088Z,100437.69
2022-10-23T21:14:21.909Z,100426.53
2022-10-23T21:16:46.434Z,100430.09
2022-10-23T21:19:10.340Z,100430.81
2022-10-23T21:21:33.243Z,100422.03
2022-10-23T21:23:59.474Z,100424.44
2022-10-23T21:26:24.604Z,100421.25
2022-10-23T21:28:56.225Z,100424.44
2022-10-23T21:31:28.980Z,100425.25
2022-10-23T21:33:50.802Z,100415.75
2022-10-23T21:36:19.691Z,100421.31
2022-10-23T21:38:41.558Z,100418.13
2022-10-23T21:41:14.187Z,100411.78
2022-10-23T21:43:36.284Z,100411.75
2022-10-23T21:45:58.896Z,100414.09
2022-10-23T21:48:20.744Z,100404.97
2022-10-23T21:50:42.517Z,100414.47
2022-10-23T21:53:04.320Z,100416.47
2022-10-23T21:55:30.333Z,100410.13
2022-10-23T21:57:52.110Z,100412.09
2022-10-23T22:00:19.620Z,100418.88
2022-10-23T22:02:41.615Z,100409.75
2022-10-23T22:05:03.886Z,100394.63
2022-10-23T22:07:29.914Z,100411.69
2022-10-23T22:09:52.166Z,100403.28
2022-10-23T22:12:14.042Z,100414.81
2022-10-23T22:14:37.425Z,100401.69
2022-10-23T22:16:59.266Z,100407.25
2022-10-23T22:19:22.725Z,100410.03
2022-10-23T22:21:45.166Z,100411.63
2022-10-23T22:24:07.688Z,100416.38
2022-10-23T22:26:32.179Z,100412.44
2022-10-23T22:29:01.097Z,100412.44
2022-10-23T22:31:27.696Z,100417.19
2022-10-23T22:33:50.923Z,100411.63
2022-10-23T22:36:13.197Z,100408.47
2022-10-23T22:38:35.108Z,100421.19
2022-10-23T22:40:56.968Z,100410.88
2022-10-23T22:43:18.711Z,100411.69
2022-10-23T22:45:40.479Z,100406.91
2022-10-23T22:48:02.419Z,100404.94
2022-10-23T22:50:24.238Z,100398.19
2022-10-23T22:52:46.235Z,100398.19
2022-10-23T22:55:09.968Z,100400.56
2022-10-23T22:57:31.727Z,100392.25
2022-10-23T22:59:53.491Z,100388.72
2022-10-23T23:02:15.360Z,100384.75
2022-10-23T23:04:38.695Z,100387.16
2022-10-23T23:07:01.054Z,100378.41
2022-10-23T23:09:22.959Z,100374.03
2022-10-23T23:11:51.302Z,100378.00
2022-10-23T23:14:15.746Z,100375.63
2022-10-23T23:16:40.095Z,100372.84
2022-10-23T23:19:04.399Z,100377.59
2022-10-23T23:21:27.560Z,100385.50
2022-10-23T23:23:49.425Z,100383.09
2022-10-23T23:26:12.136Z,100377.53
2022-10-23T23:28:33.949Z,100379.09
2022-10-23T23:31:09.578Z,100375.47
2022-10-23T23:33:31.538Z,100379.81
2022-10-23T23:35:53.304Z,100363.09
2022-10-23T23:38:15.206Z,100367.03
2022-10-23T23:40:37.902Z,100371.00
2022-10-23T23:42:59.694Z,100370.97
2022-10-23T23:45:21.458Z,100371.34
2022-10-23T23:47:43.624Z,100371.75
2022-10-23T23:50:08.534Z,100366.56
2022-10-23T23:52:30.336Z,100368.56
2022-10-23T23:54:52.123Z,100357.03
2022-10-23T23:57:14.166Z,100365.34
2022-10-23T23:59:38.110Z,100355.44
